OAL233 EVRA-LGTS
Flight info
| Callsign | OAL233 |
|---|---|
| Flight time | 1h 41m |
| Altitude | 38000 |
| Route | ATRAK DCT GUNTA DCT INBOV DCT BOKSU M857 GERVI Z179 KEFIR DCT ROBTU/N0451F390 DCT ROMKA DCT VERIG DCT GESBA/N0451F380 DCT VELIP/N0450F390 DCT VAGEN DCT RAXAD DCT RUGAS UN128 FSK |
| Aircraft | B737/M-SDE2E3FGHIRWXY/LB1 |
Departure
| Time | 2026-05-07 16:37 |
|---|---|
| Airport | Riga International Airport (EVRA) |
Arrival
| Time | 2026-05-07 18:19 |
|---|---|
| Airport | Thessaloniki Macedonia International Airport (LGTS) |
| Time | Latitude | Longitude | Altitude | Speed | Heading |
|---|---|---|---|---|---|
| 2026-05-07 16:17 | 56.92194 | 23.97753 | 45 ft | 0 kts | 5° |
| 2026-05-07 16:30 | 56.92181 | 23.97751 | 45 ft | 4 kts | 0° |
| 2026-05-07 16:31 | 56.92154 | 23.97755 | 43 ft | 4 kts | 340° |
| 2026-05-07 16:31 | 56.92134 | 23.97779 | 43 ft | 4 kts | 296° |
| 2026-05-07 16:31 | 56.92130 | 23.97802 | 45 ft | 1 kts | 276° |
| 2026-05-07 16:31 | 56.92129 | 23.97804 | 45 ft | 0 kts | 276° |
| 2026-05-07 16:33 | 56.92132 | 23.97749 | 45 ft | 8 kts | 275° |
| 2026-05-07 16:33 | 56.92139 | 23.97604 | 41 ft | 15 kts | 274° |
| 2026-05-07 16:34 | 56.92075 | 23.97460 | 42 ft | 20 kts | 186° |
| 2026-05-07 16:34 | 56.91913 | 23.97443 | 43 ft | 27 kts | 182° |
| 2026-05-07 16:34 | 56.91709 | 23.97407 | 45 ft | 32 kts | 185° |
| 2026-05-07 16:34 | 56.91469 | 23.97369 | 43 ft | 37 kts | 181° |
| 2026-05-07 16:35 | 56.91275 | 23.97162 | 45 ft | 18 kts | 241° |
| 2026-05-07 16:35 | 56.91272 | 23.97147 | 45 ft | 0 kts | 248° |
| 2026-05-07 16:35 | 56.91272 | 23.97146 | 45 ft | 1 kts | 248° |
| 2026-05-07 16:36 | 56.91266 | 23.97108 | 43 ft | 6 kts | 256° |
| 2026-05-07 16:36 | 56.91267 | 23.97000 | 46 ft | 11 kts | 290° |
| 2026-05-07 16:36 | 56.91338 | 23.96952 | 47 ft | 14 kts | 3° |
| 2026-05-07 16:36 | 56.91669 | 23.97004 | 44 ft | 89 kts | 5° |
| 2026-05-07 16:37 | 56.92536 | 23.97136 | 120 ft | 152 kts | 3° |
| 2026-05-07 16:37 | 56.93672 | 23.97332 | 747 ft | 170 kts | 5° |
| 2026-05-07 16:37 | 56.94884 | 23.97148 | 1735 ft | 185 kts | 341° |
| 2026-05-07 16:37 | 56.95831 | 23.95443 | 2407 ft | 210 kts | 297° |
| 2026-05-07 16:38 | 56.95991 | 23.92703 | 3073 ft | 229 kts | 260° |
| 2026-05-07 16:38 | 56.95283 | 23.89886 | 3449 ft | 260 kts | 240° |
| 2026-05-07 16:38 | 56.94164 | 23.87212 | 4275 ft | 269 kts | 217° |
| 2026-05-07 16:38 | 56.92447 | 23.85995 | 5339 ft | 267 kts | 181° |
| 2026-05-07 16:39 | 56.90674 | 23.86657 | 6318 ft | 267 kts | 155° |
| 2026-05-07 16:39 | 56.88958 | 23.88070 | 7170 ft | 272 kts | 155° |
| 2026-05-07 16:39 | 56.87213 | 23.89433 | 7979 ft | 282 kts | 159° |
| 2026-05-07 16:39 | 56.85352 | 23.90542 | 8843 ft | 285 kts | 168° |
| 2026-05-07 16:40 | 56.83391 | 23.91161 | 9907 ft | 282 kts | 177° |
| 2026-05-07 16:40 | 56.81470 | 23.91318 | 10784 ft | 281 kts | 184° |
| 2026-05-07 16:40 | 56.79560 | 23.91156 | 11628 ft | 282 kts | 188° |
| 2026-05-07 16:40 | 56.77602 | 23.90766 | 12476 ft | 284 kts | 191° |
| 2026-05-07 16:41 | 56.75638 | 23.90233 | 13326 ft | 286 kts | 193° |
| 2026-05-07 16:41 | 56.73668 | 23.89609 | 14155 ft | 288 kts | 194° |
| 2026-05-07 16:41 | 56.71709 | 23.88938 | 14921 ft | 289 kts | 195° |
| 2026-05-07 16:41 | 56.69716 | 23.88225 | 15727 ft | 290 kts | 195° |
| 2026-05-07 16:42 | 56.67729 | 23.87499 | 16511 ft | 292 kts | 196° |
| 2026-05-07 16:42 | 56.65755 | 23.86770 | 17275 ft | 294 kts | 196° |
| 2026-05-07 16:42 | 56.63744 | 23.86023 | 18058 ft | 296 kts | 196° |
| 2026-05-07 16:42 | 56.61709 | 23.85266 | 18775 ft | 298 kts | 196° |
| 2026-05-07 16:43 | 56.59666 | 23.84507 | 19462 ft | 299 kts | 196° |
| 2026-05-07 16:43 | 56.57631 | 23.83731 | 20163 ft | 300 kts | 197° |
| 2026-05-07 16:43 | 56.55596 | 23.82924 | 20851 ft | 301 kts | 197° |
| 2026-05-07 16:43 | 56.53544 | 23.82103 | 21522 ft | 303 kts | 197° |
| 2026-05-07 16:44 | 56.51473 | 23.81275 | 22197 ft | 306 kts | 197° |
| 2026-05-07 16:44 | 56.49389 | 23.80445 | 22876 ft | 308 kts | 197° |
| 2026-05-07 16:44 | 56.47289 | 23.79613 | 23552 ft | 310 kts | 197° |
| 2026-05-07 16:44 | 56.45175 | 23.78778 | 24119 ft | 312 kts | 198° |
| 2026-05-07 16:45 | 56.43054 | 23.77942 | 24726 ft | 312 kts | 198° |
| 2026-05-07 16:45 | 56.40956 | 23.77115 | 25325 ft | 312 kts | 198° |
| 2026-05-07 16:45 | 56.36773 | 23.75470 | 26495 ft | 313 kts | 198° |
| 2026-05-07 16:46 | 56.34651 | 23.74659 | 27249 ft | 309 kts | 199° |
| 2026-05-07 16:46 | 56.32594 | 23.73884 | 28035 ft | 303 kts | 199° |
| 2026-05-07 16:46 | 56.30546 | 23.73115 | 28802 ft | 298 kts | 199° |
| 2026-05-07 16:46 | 56.28528 | 23.72354 | 29478 ft | 295 kts | 200° |
| 2026-05-07 16:47 | 56.26522 | 23.71597 | 30125 ft | 293 kts | 200° |
| 2026-05-07 16:47 | 56.24480 | 23.70830 | 30669 ft | 291 kts | 200° |
| 2026-05-07 16:47 | 56.08720 | 23.64837 | 33883 ft | 294 kts | 199° |
| 2026-05-07 16:47 | 55.91784 | 23.58455 | 35093 ft | 322 kts | 198° |
| 2026-05-07 16:48 | 55.86776 | 23.56640 | 34282 ft | 318 kts | 198° |
| 2026-05-07 16:48 | 55.84543 | 23.55789 | 32764 ft | 336 kts | 198° |
| 2026-05-07 16:48 | 55.82078 | 23.54757 | 30530 ft | 385 kts | 199° |
| 2026-05-07 16:48 | 55.79381 | 23.53704 | 29351 ft | 392 kts | 198° |
| 2026-05-07 16:49 | 55.76907 | 23.52809 | 30863 ft | 345 kts | 197° |
| 2026-05-07 16:49 | 55.74565 | 23.52038 | 31436 ft | 341 kts | 197° |
| 2026-05-07 16:49 | 55.72239 | 23.51263 | 31960 ft | 340 kts | 197° |
| 2026-05-07 16:49 | 55.55997 | 23.45407 | 33562 ft | 371 kts | 197° |
| 2026-05-07 16:50 | 55.35090 | 23.37909 | 35166 ft | 396 kts | 195° |
| 2026-05-07 16:50 | 55.12848 | 23.31020 | 36501 ft | 413 kts | 193° |
| 2026-05-07 16:50 | 54.90033 | 23.24084 | 37969 ft | 418 kts | 193° |
| 2026-05-07 16:50 | 54.66695 | 23.16786 | 38216 ft | 434 kts | 193° |
| 2026-05-07 16:51 | 54.42807 | 23.09546 | 37950 ft | 434 kts | 193° |
| 2026-05-07 16:51 | 54.19616 | 23.00461 | 37846 ft | 418 kts | 205° |
| 2026-05-07 16:51 | 53.98718 | 22.84510 | 37866 ft | 415 kts | 195° |
| 2026-05-07 16:52 | 53.79203 | 22.79703 | 37969 ft | 409 kts | 196° |
| 2026-05-07 16:52 | 53.73662 | 22.77464 | 37964 ft | 409 kts | 196° |
| 2026-05-07 16:53 | 53.68140 | 22.75327 | 37959 ft | 409 kts | 195° |
| 2026-05-07 16:53 | 53.62575 | 22.73236 | 37958 ft | 411 kts | 195° |
| 2026-05-07 16:54 | 53.38790 | 22.64405 | 37955 ft | 415 kts | 195° |
| 2026-05-07 16:54 | 53.33139 | 22.62332 | 37948 ft | 416 kts | 195° |
| 2026-05-07 16:55 | 53.27482 | 22.60255 | 37906 ft | 416 kts | 195° |
| 2026-05-07 16:55 | 53.21835 | 22.58183 | 37930 ft | 414 kts | 195° |
| 2026-05-07 16:56 | 53.16248 | 22.56131 | 37941 ft | 413 kts | 195° |
| 2026-05-07 16:56 | 53.07823 | 22.53046 | 37944 ft | 412 kts | 195° |
| 2026-05-07 16:57 | 53.02337 | 22.51044 | 37932 ft | 411 kts | 195° |
| 2026-05-07 16:57 | 52.96744 | 22.49009 | 37938 ft | 410 kts | 195° |
| 2026-05-07 16:58 | 52.91201 | 22.46997 | 37937 ft | 410 kts | 195° |
| 2026-05-07 16:58 | 52.85628 | 22.44979 | 37925 ft | 409 kts | 195° |
| 2026-05-07 16:59 | 52.80059 | 22.42967 | 37938 ft | 409 kts | 195° |
| 2026-05-07 16:59 | 52.74502 | 22.40968 | 37936 ft | 409 kts | 195° |
| 2026-05-07 17:00 | 52.68942 | 22.38976 | 37942 ft | 409 kts | 195° |
| 2026-05-07 17:00 | 52.63367 | 22.36983 | 37941 ft | 409 kts | 195° |
| 2026-05-07 17:01 | 52.57802 | 22.34998 | 37929 ft | 410 kts | 195° |
| 2026-05-07 17:01 | 52.52218 | 22.33011 | 37929 ft | 410 kts | 195° |
| 2026-05-07 17:02 | 52.46678 | 22.31045 | 37934 ft | 410 kts | 195° |
| 2026-05-07 17:02 | 52.41090 | 22.29068 | 37933 ft | 411 kts | 195° |
| 2026-05-07 17:03 | 52.35495 | 22.27099 | 37921 ft | 411 kts | 194° |
| 2026-05-07 17:03 | 52.29904 | 22.25137 | 37930 ft | 411 kts | 194° |
| 2026-05-07 17:04 | 52.24293 | 22.23171 | 37931 ft | 412 kts | 194° |
| 2026-05-07 17:04 | 52.18683 | 22.21211 | 37907 ft | 412 kts | 194° |
| 2026-05-07 17:05 | 52.13011 | 22.19728 | 37928 ft | 414 kts | 187° |
| 2026-05-07 17:05 | 52.07288 | 22.19163 | 37932 ft | 415 kts | 186° |
| 2026-05-07 17:06 | 52.01576 | 22.18617 | 37928 ft | 415 kts | 186° |
| 2026-05-07 17:06 | 51.95831 | 22.18042 | 37931 ft | 415 kts | 187° |
| 2026-05-07 17:07 | 51.90069 | 22.17449 | 37932 ft | 414 kts | 187° |
| 2026-05-07 17:07 | 51.84311 | 22.16852 | 37924 ft | 414 kts | 187° |
| 2026-05-07 17:08 | 51.78551 | 22.16256 | 37932 ft | 414 kts | 187° |
| 2026-05-07 17:08 | 51.72835 | 22.15666 | 37936 ft | 414 kts | 187° |
| 2026-05-07 17:09 | 51.67067 | 22.15073 | 37935 ft | 414 kts | 187° |
| 2026-05-07 17:09 | 51.61310 | 22.14482 | 37931 ft | 415 kts | 187° |
| 2026-05-07 17:10 | 51.55543 | 22.13892 | 37939 ft | 415 kts | 187° |
| 2026-05-07 17:10 | 51.49779 | 22.13303 | 37941 ft | 415 kts | 187° |
| 2026-05-07 17:11 | 51.44976 | 22.12814 | 37911 ft | 416 kts | 187° |
| 2026-05-07 17:11 | 51.38259 | 22.12132 | 37945 ft | 416 kts | 187° |
| 2026-05-07 17:12 | 51.33424 | 22.11642 | 37946 ft | 416 kts | 187° |
| 2026-05-07 17:12 | 51.27643 | 22.11057 | 37949 ft | 416 kts | 187° |
| 2026-05-07 17:13 | 51.21859 | 22.10474 | 37940 ft | 416 kts | 187° |
| 2026-05-07 17:13 | 51.16120 | 22.09897 | 37940 ft | 416 kts | 187° |
| 2026-05-07 17:14 | 51.10331 | 22.09316 | 37948 ft | 416 kts | 187° |
| 2026-05-07 17:14 | 51.04545 | 22.08737 | 37937 ft | 416 kts | 187° |
| 2026-05-07 17:15 | 50.98766 | 22.08160 | 37935 ft | 416 kts | 187° |
| 2026-05-07 17:15 | 50.93036 | 22.07589 | 37950 ft | 415 kts | 187° |
| 2026-05-07 17:16 | 50.87260 | 22.07016 | 37956 ft | 415 kts | 187° |
| 2026-05-07 17:16 | 50.81489 | 22.06444 | 37934 ft | 415 kts | 187° |
| 2026-05-07 17:17 | 50.75728 | 22.05874 | 37908 ft | 414 kts | 187° |
| 2026-05-07 17:17 | 50.69990 | 22.05309 | 37931 ft | 413 kts | 187° |
| 2026-05-07 17:18 | 50.64247 | 22.04744 | 37946 ft | 412 kts | 187° |
| 2026-05-07 17:18 | 50.58529 | 22.04182 | 37948 ft | 412 kts | 187° |
| 2026-05-07 17:19 | 50.52834 | 22.03625 | 37947 ft | 412 kts | 187° |
| 2026-05-07 17:19 | 50.47103 | 22.03065 | 37951 ft | 412 kts | 187° |
| 2026-05-07 17:20 | 50.41363 | 22.02505 | 37955 ft | 413 kts | 187° |
| 2026-05-07 17:20 | 50.35623 | 22.01948 | 37958 ft | 413 kts | 187° |
| 2026-05-07 17:21 | 50.29882 | 22.01391 | 37968 ft | 413 kts | 187° |
| 2026-05-07 17:21 | 50.24137 | 22.00835 | 37966 ft | 414 kts | 187° |
| 2026-05-07 17:22 | 50.18387 | 22.00280 | 37964 ft | 414 kts | 187° |
| 2026-05-07 17:22 | 50.12662 | 21.99729 | 37960 ft | 415 kts | 187° |
| 2026-05-07 17:23 | 50.07421 | 21.99228 | 37943 ft | 415 kts | 187° |
| 2026-05-07 17:23 | 50.01694 | 21.98679 | 37961 ft | 415 kts | 187° |
| 2026-05-07 17:24 | 49.95892 | 21.98123 | 37967 ft | 415 kts | 187° |
| 2026-05-07 17:24 | 49.90167 | 21.97577 | 37967 ft | 415 kts | 187° |
| 2026-05-07 17:25 | 49.84386 | 21.97027 | 37964 ft | 416 kts | 187° |
| 2026-05-07 17:25 | 49.78603 | 21.96478 | 37961 ft | 416 kts | 187° |
| 2026-05-07 17:26 | 49.72814 | 21.95930 | 37967 ft | 416 kts | 187° |
| 2026-05-07 17:26 | 49.67040 | 21.95385 | 37961 ft | 416 kts | 187° |
| 2026-05-07 17:27 | 49.61290 | 21.94843 | 37968 ft | 416 kts | 187° |
| 2026-05-07 17:27 | 49.55518 | 21.94301 | 37980 ft | 415 kts | 187° |
| 2026-05-07 17:28 | 49.49744 | 21.93759 | 37971 ft | 415 kts | 187° |
| 2026-05-07 17:29 | 49.38444 | 21.92703 | 37959 ft | 414 kts | 187° |
| 2026-05-07 17:29 | 49.32742 | 21.91903 | 37971 ft | 412 kts | 192° |
| 2026-05-07 17:30 | 49.27072 | 21.90518 | 37974 ft | 412 kts | 192° |
| 2026-05-07 17:30 | 49.21406 | 21.89114 | 37954 ft | 413 kts | 192° |
| 2026-05-07 17:31 | 49.15713 | 21.87739 | 37972 ft | 414 kts | 192° |
| 2026-05-07 17:31 | 49.10058 | 21.86392 | 37970 ft | 414 kts | 192° |
| 2026-05-07 17:32 | 49.04469 | 21.85065 | 37975 ft | 415 kts | 192° |
| 2026-05-07 17:32 | 48.69138 | 21.80746 | 38000 ft | 425 kts | 179° |
| 2026-05-07 17:33 | 48.21994 | 21.83801 | 37962 ft | 423 kts | 183° |
| 2026-05-07 17:33 | 47.75778 | 21.78500 | 38004 ft | 419 kts | 188° |
| 2026-05-07 17:34 | 47.28881 | 21.73861 | 37985 ft | 423 kts | 188° |
| 2026-05-07 17:34 | 46.81211 | 21.74307 | 38008 ft | 433 kts | 180° |
| 2026-05-07 17:35 | 46.33240 | 21.76750 | 38012 ft | 431 kts | 182° |
| 2026-05-07 17:35 | 45.84984 | 21.78812 | 37929 ft | 430 kts | 188° |
| 2026-05-07 17:36 | 45.38573 | 21.66204 | 38056 ft | 430 kts | 192° |
| 2026-05-07 17:36 | 44.91104 | 21.56393 | 38020 ft | 434 kts | 194° |
| 2026-05-07 17:37 | 44.66878 | 21.52953 | 37972 ft | 454 kts | 177° |
| 2026-05-07 17:37 | 44.42364 | 21.62288 | 37986 ft | 456 kts | 167° |
| 2026-05-07 17:37 | 44.18575 | 21.70502 | 37853 ft | 438 kts | 175° |
| 2026-05-07 17:37 | 43.94623 | 21.75537 | 38012 ft | 435 kts | 176° |
| 2026-05-07 17:38 | 43.70858 | 21.81847 | 38117 ft | 445 kts | 174° |
| 2026-05-07 17:38 | 43.46318 | 21.88800 | 38157 ft | 453 kts | 175° |
| 2026-05-07 17:38 | 43.21249 | 21.95129 | 38051 ft | 460 kts | 175° |
| 2026-05-07 17:38 | 42.96368 | 22.01613 | 37992 ft | 460 kts | 175° |
| 2026-05-07 17:39 | 42.74263 | 22.07468 | 38026 ft | 447 kts | 176° |
| 2026-05-07 17:39 | 42.68143 | 22.09291 | 38100 ft | 456 kts | 170° |
| 2026-05-07 17:40 | 42.62037 | 22.11812 | 38104 ft | 464 kts | 169° |
| 2026-05-07 17:40 | 42.55854 | 22.14390 | 38101 ft | 463 kts | 170° |
| 2026-05-07 17:41 | 42.49672 | 22.16873 | 38105 ft | 463 kts | 170° |
| 2026-05-07 17:41 | 42.43474 | 22.19312 | 38118 ft | 463 kts | 171° |
| 2026-05-07 17:42 | 42.37290 | 22.21746 | 38115 ft | 462 kts | 170° |
| 2026-05-07 17:42 | 42.34218 | 22.22959 | 37951 ft | 455 kts | 171° |
| 2026-05-07 17:42 | 42.31190 | 22.24155 | 37341 ft | 454 kts | 169° |
| 2026-05-07 17:43 | 42.28183 | 22.25583 | 36516 ft | 463 kts | 164° |
| 2026-05-07 17:43 | 42.25181 | 22.27245 | 35691 ft | 469 kts | 162° |
| 2026-05-07 17:43 | 42.22205 | 22.28982 | 34905 ft | 472 kts | 161° |
| 2026-05-07 17:43 | 42.19188 | 22.30764 | 34119 ft | 475 kts | 161° |
| 2026-05-07 17:44 | 42.18394 | 22.31232 | 33861 ft | 476 kts | 161° |
| 2026-05-07 17:44 | 42.17797 | 22.31583 | 33675 ft | 477 kts | 161° |
| 2026-05-07 17:44 | 42.14777 | 22.33344 | 32744 ft | 480 kts | 161° |
| 2026-05-07 17:44 | 42.14443 | 22.33537 | 32651 ft | 481 kts | 161° |
| 2026-05-07 17:45 | 42.11184 | 22.35411 | 31735 ft | 482 kts | 161° |
| 2026-05-07 17:45 | 42.08096 | 22.37169 | 30893 ft | 483 kts | 160° |
| 2026-05-07 17:45 | 42.05043 | 22.38896 | 30043 ft | 483 kts | 160° |
| 2026-05-07 17:46 | 42.01936 | 22.40647 | 29018 ft | 483 kts | 160° |
| 2026-05-07 17:46 | 41.98843 | 22.42388 | 28406 ft | 476 kts | 160° |
| 2026-05-07 17:46 | 41.95794 | 22.44104 | 28261 ft | 477 kts | 160° |
| 2026-05-07 17:46 | 41.92704 | 22.45837 | 28164 ft | 485 kts | 160° |
| 2026-05-07 17:47 | 41.86443 | 22.49346 | 28125 ft | 488 kts | 160° |
| 2026-05-07 17:47 | 41.80838 | 22.52478 | 28104 ft | 486 kts | 161° |
| 2026-05-07 17:48 | 41.74587 | 22.55958 | 28111 ft | 486 kts | 161° |
| 2026-05-07 17:48 | 41.71486 | 22.57687 | 27986 ft | 478 kts | 161° |
| 2026-05-07 17:48 | 41.68475 | 22.59368 | 27291 ft | 473 kts | 161° |
| 2026-05-07 17:49 | 41.65401 | 22.61081 | 26279 ft | 474 kts | 160° |
| 2026-05-07 17:49 | 41.62384 | 22.62760 | 25172 ft | 477 kts | 160° |
| 2026-05-07 17:49 | 41.61196 | 22.63421 | 24780 ft | 477 kts | 160° |
| 2026-05-07 17:50 | 41.58711 | 22.64804 | 24086 ft | 475 kts | 160° |
| 2026-05-07 17:50 | 41.55678 | 22.66494 | 23361 ft | 467 kts | 160° |
| 2026-05-07 17:50 | 41.52716 | 22.68142 | 22582 ft | 459 kts | 160° |
| 2026-05-07 17:51 | 41.49777 | 22.69773 | 21714 ft | 455 kts | 160° |
| 2026-05-07 17:51 | 41.46862 | 22.71386 | 20899 ft | 451 kts | 160° |
| 2026-05-07 17:51 | 41.43983 | 22.72979 | 20129 ft | 446 kts | 160° |
| 2026-05-07 17:51 | 41.41371 | 22.74423 | 19451 ft | 442 kts | 160° |
| 2026-05-07 17:52 | 41.40771 | 22.74755 | 19290 ft | 441 kts | 160° |
| 2026-05-07 17:52 | 41.37921 | 22.76329 | 18562 ft | 436 kts | 161° |
| 2026-05-07 17:52 | 41.36567 | 22.77075 | 18182 ft | 434 kts | 161° |
| 2026-05-07 17:53 | 41.34745 | 22.78079 | 17621 ft | 432 kts | 160° |
| 2026-05-07 17:53 | 41.32016 | 22.79706 | 16824 ft | 429 kts | 154° |
| 2026-05-07 17:53 | 41.29472 | 22.81803 | 16473 ft | 433 kts | 149° |
| 2026-05-07 17:54 | 41.26985 | 22.84047 | 16341 ft | 433 kts | 148° |
| 2026-05-07 17:54 | 41.24501 | 22.86317 | 16217 ft | 429 kts | 148° |
| 2026-05-07 17:54 | 41.22054 | 22.88515 | 16123 ft | 430 kts | 148° |
| 2026-05-07 17:54 | 41.19537 | 22.90734 | 16119 ft | 427 kts | 149° |
| 2026-05-07 17:55 | 41.17042 | 22.92907 | 16116 ft | 427 kts | 149° |
| 2026-05-07 17:55 | 41.14593 | 22.95029 | 16102 ft | 427 kts | 149° |
| 2026-05-07 17:55 | 41.12069 | 22.97116 | 16097 ft | 425 kts | 156° |
| 2026-05-07 17:55 | 41.09272 | 22.98230 | 16119 ft | 418 kts | 176° |
| 2026-05-07 17:56 | 41.06399 | 22.98206 | 16055 ft | 408 kts | 192° |
| 2026-05-07 17:56 | 41.03650 | 22.97472 | 15629 ft | 399 kts | 196° |
| 2026-05-07 17:56 | 41.00960 | 22.96641 | 14874 ft | 391 kts | 197° |
| 2026-05-07 17:56 | 40.98337 | 22.95818 | 14152 ft | 379 kts | 197° |
| 2026-05-07 17:57 | 40.95870 | 22.95062 | 14000 ft | 353 kts | 197° |
| 2026-05-07 17:57 | 40.94321 | 22.94595 | 13897 ft | 337 kts | 197° |
| 2026-05-07 17:57 | 40.91388 | 22.93726 | 13698 ft | 309 kts | 197° |
| 2026-05-07 17:57 | 40.89350 | 22.93128 | 13347 ft | 298 kts | 197° |
| 2026-05-07 17:58 | 40.87329 | 22.92536 | 12730 ft | 297 kts | 197° |
| 2026-05-07 17:58 | 40.85312 | 22.91956 | 12180 ft | 295 kts | 194° |
| 2026-05-07 17:58 | 40.83256 | 22.92008 | 11625 ft | 302 kts | 170° |
| 2026-05-07 17:58 | 40.81365 | 22.93229 | 11134 ft | 307 kts | 144° |
| 2026-05-07 17:59 | 40.79999 | 22.95407 | 10599 ft | 311 kts | 119° |
| 2026-05-07 17:59 | 40.79422 | 22.98116 | 10083 ft | 313 kts | 94° |
| 2026-05-07 17:59 | 40.79704 | 23.00885 | 9515 ft | 313 kts | 69° |
| 2026-05-07 17:59 | 40.80824 | 23.03296 | 8989 ft | 306 kts | 43° |
| 2026-05-07 18:00 | 40.82479 | 23.04818 | 8483 ft | 298 kts | 21° |
| 2026-05-07 18:00 | 40.84353 | 23.05806 | 8002 ft | 294 kts | 18° |
| 2026-05-07 18:00 | 40.86290 | 23.06570 | 7451 ft | 288 kts | 2° |
| 2026-05-07 18:00 | 40.88174 | 23.06304 | 6967 ft | 279 kts | 337° |
| 2026-05-07 18:01 | 40.89753 | 23.04995 | 6440 ft | 271 kts | 310° |
| 2026-05-07 18:01 | 40.90689 | 23.02914 | 5869 ft | 265 kts | 284° |
| 2026-05-07 18:01 | 40.90774 | 23.00522 | 5294 ft | 261 kts | 256° |
| 2026-05-07 18:01 | 40.89974 | 22.98373 | 4750 ft | 259 kts | 228° |
| 2026-05-07 18:02 | 40.87036 | 22.95720 | 4176 ft | 252 kts | 211° |
| 2026-05-07 18:02 | 40.85550 | 22.94588 | 4102 ft | 241 kts | 211° |
| 2026-05-07 18:02 | 40.84138 | 22.93519 | 4081 ft | 228 kts | 211° |
| 2026-05-07 18:03 | 40.82796 | 22.92508 | 4078 ft | 215 kts | 211° |
| 2026-05-07 18:03 | 40.81534 | 22.91561 | 4096 ft | 206 kts | 211° |
| 2026-05-07 18:03 | 40.80276 | 22.90619 | 4097 ft | 204 kts | 211° |
| 2026-05-07 18:03 | 40.79084 | 22.89730 | 4085 ft | 194 kts | 211° |
| 2026-05-07 18:04 | 40.77933 | 22.88944 | 4092 ft | 179 kts | 196° |
| 2026-05-07 18:04 | 40.76713 | 22.89032 | 4166 ft | 179 kts | 170° |
| 2026-05-07 18:04 | 40.75494 | 22.89395 | 4128 ft | 178 kts | 170° |
| 2026-05-07 18:04 | 40.74718 | 22.89633 | 4120 ft | 171 kts | 170° |
| 2026-05-07 18:05 | 40.73564 | 22.89999 | 4082 ft | 172 kts | 169° |
| 2026-05-07 18:05 | 40.72447 | 22.90362 | 3879 ft | 164 kts | 169° |
| 2026-05-07 18:05 | 40.71381 | 22.90710 | 3662 ft | 152 kts | 170° |
| 2026-05-07 18:05 | 40.70420 | 22.91023 | 3502 ft | 150 kts | 169° |
| 2026-05-07 18:06 | 40.69427 | 22.91348 | 3300 ft | 148 kts | 169° |
| 2026-05-07 18:06 | 40.68433 | 22.91674 | 3122 ft | 145 kts | 169° |
| 2026-05-07 18:06 | 40.67446 | 22.91999 | 2918 ft | 146 kts | 169° |
| 2026-05-07 18:06 | 40.66459 | 22.92323 | 2729 ft | 146 kts | 168° |
| 2026-05-07 18:07 | 40.65477 | 22.92645 | 2528 ft | 146 kts | 168° |
| 2026-05-07 18:07 | 40.64509 | 22.92963 | 2340 ft | 146 kts | 168° |
| 2026-05-07 18:07 | 40.63523 | 22.93287 | 2144 ft | 145 kts | 168° |
| 2026-05-07 18:07 | 40.62541 | 22.93609 | 1952 ft | 146 kts | 168° |
| 2026-05-07 18:08 | 40.61573 | 22.93928 | 1749 ft | 145 kts | 165° |
| 2026-05-07 18:08 | 40.60609 | 22.94309 | 1567 ft | 145 kts | 165° |
| 2026-05-07 18:08 | 40.59620 | 22.94596 | 1370 ft | 145 kts | 167° |
| 2026-05-07 18:08 | 40.58647 | 22.94894 | 1174 ft | 145 kts | 166° |
| 2026-05-07 18:09 | 40.57675 | 22.95211 | 988 ft | 145 kts | 166° |
| 2026-05-07 18:09 | 40.56696 | 22.95532 | 801 ft | 145 kts | 166° |
| 2026-05-07 18:09 | 40.55717 | 22.95853 | 610 ft | 145 kts | 166° |
| 2026-05-07 18:09 | 40.54731 | 22.96176 | 413 ft | 146 kts | 165° |
| 2026-05-07 18:10 | 40.53743 | 22.96500 | 218 ft | 146 kts | 165° |
| 2026-05-07 18:10 | 40.52753 | 22.96825 | 43 ft | 153 kts | 165° |
| 2026-05-07 18:10 | 40.51739 | 22.97155 | 697 ft | 132 kts | 166° |
| 2026-05-07 18:10 | 40.50857 | 22.97367 | 1228 ft | 137 kts | 172° |
| 2026-05-07 18:11 | 40.49899 | 22.97504 | 1693 ft | 140 kts | 178° |
| 2026-05-07 18:11 | 40.48975 | 22.97158 | 2145 ft | 151 kts | 219° |
| 2026-05-07 18:11 | 40.48403 | 22.95829 | 2330 ft | 192 kts | 253° |
| 2026-05-07 18:11 | 40.48344 | 22.93976 | 2468 ft | 211 kts | 277° |
| 2026-05-07 18:12 | 40.48807 | 22.92139 | 2579 ft | 223 kts | 297° |
| 2026-05-07 18:12 | 40.49820 | 22.90554 | 2804 ft | 229 kts | 321° |
| 2026-05-07 18:12 | 40.51159 | 22.89394 | 2989 ft | 235 kts | 332° |
| 2026-05-07 18:12 | 40.52659 | 22.88449 | 3187 ft | 237 kts | 336° |
| 2026-05-07 18:13 | 40.54131 | 22.87713 | 3469 ft | 222 kts | 339° |
| 2026-05-07 18:13 | 40.55580 | 22.87098 | 3430 ft | 219 kts | 341° |
| 2026-05-07 18:13 | 40.57073 | 22.86559 | 3090 ft | 226 kts | 345° |
| 2026-05-07 18:13 | 40.58584 | 22.86112 | 2921 ft | 224 kts | 349° |
| 2026-05-07 18:14 | 40.60087 | 22.85838 | 2757 ft | 213 kts | 352° |
| 2026-05-07 18:14 | 40.61554 | 22.85649 | 2404 ft | 211 kts | 353° |
| 2026-05-07 18:14 | 40.62979 | 22.85814 | 2113 ft | 204 kts | 18° |
| 2026-05-07 18:14 | 40.64131 | 22.86755 | 1905 ft | 192 kts | 47° |
| 2026-05-07 18:15 | 40.64774 | 22.88240 | 1678 ft | 183 kts | 73° |
| 2026-05-07 18:15 | 40.64895 | 22.89842 | 1464 ft | 173 kts | 95° |
| 2026-05-07 18:15 | 40.64559 | 22.91334 | 1411 ft | 173 kts | 118° |
| 2026-05-07 18:15 | 40.63815 | 22.92595 | 1442 ft | 173 kts | 132° |
| 2026-05-07 18:16 | 40.62936 | 22.93609 | 1511 ft | 164 kts | 148° |
| 2026-05-07 18:16 | 40.61851 | 22.94128 | 1428 ft | 171 kts | 164° |
| 2026-05-07 18:16 | 40.60702 | 22.94412 | 1404 ft | 167 kts | 168° |
| 2026-05-07 18:16 | 40.59636 | 22.94673 | 1405 ft | 145 kts | 165° |
| 2026-05-07 18:17 | 40.58687 | 22.94995 | 1214 ft | 143 kts | 160° |
| 2026-05-07 18:17 | 40.57710 | 22.95335 | 983 ft | 147 kts | 163° |
| 2026-05-07 18:17 | 40.56695 | 22.95624 | 760 ft | 148 kts | 169° |
| 2026-05-07 18:17 | 40.55705 | 22.95900 | 611 ft | 144 kts | 162° |
| 2026-05-07 18:18 | 40.54739 | 22.96229 | 415 ft | 143 kts | 166° |
| 2026-05-07 18:18 | 40.53764 | 22.96530 | 216 ft | 145 kts | 169° |
| 2026-05-07 18:18 | 40.52800 | 22.96841 | 27 ft | 138 kts | 162° |
| 2026-05-07 18:18 | 40.51997 | 22.97082 | 10 ft | 91 kts | 167° |
| 2026-05-07 18:19 | 40.51577 | 22.97213 | 13 ft | 36 kts | 161° |
| 2026-05-07 18:19 | 40.51532 | 22.97408 | 11 ft | 22 kts | 40° |
| 2026-05-07 18:19 | 40.51670 | 22.97370 | 12 ft | 21 kts | 345° |
| 2026-05-07 18:19 | 40.51820 | 22.97321 | 13 ft | 24 kts | 347° |
| 2026-05-07 18:20 | 40.52008 | 22.97263 | 14 ft | 30 kts | 346° |
| 2026-05-07 18:20 | 40.52213 | 22.97195 | 14 ft | 30 kts | 350° |
| 2026-05-07 18:20 | 40.52285 | 22.97220 | 15 ft | 6 kts | 41° |
| 2026-05-07 18:20 | 40.52314 | 22.97259 | 13 ft | 6 kts | 47° |
| 2026-05-07 18:21 | 40.52339 | 22.97304 | 14 ft | 7 kts | 52° |
| 2026-05-07 18:21 | 40.52382 | 22.97366 | 14 ft | 10 kts | 46° |
| 2026-05-07 18:21 | 40.52428 | 22.97425 | 15 ft | 0 kts | 44° |